Latest Weather Observations for Clermont Airport

IDQ60801

Issued at 8:35 pm EST Friday 18 April 2014 (issued every 30 minutes, with the page automatically refreshed every 10 minutes)

About weather observations | Map of weather stations | Latest weather observations for QLD | Other Formats
Station Details ID: 035124 Name: CLERMONT AIRPORT Lat: -22.78 Lon: 147.62 Height: 270.27 m
Data from the previous 72 hours. | See also: Recent months at Clermont Airport
Date/Time
EST
Temp
°C
App
Temp
°C
Dew
Point
Rel
Hum
%
Delta-T
°C
Wind Press
QNH
hPa
Press
MSL
hPa
Rain
since 9 am
mm
Dir
 
Spd
km/h
Gust
km/h
Spd
kts
Gust
kts
18/08:30pm 21.4 22.6 14.8 66 3.9 E 2 4 1 2 1016.7 - 0.2
18/08:00pm 20.4 21.7 15.2 72 3.1 ESE 2 6 1 3 1016.5 1015.3 0.2
18/07:30pm 21.4 22.8 14.3 64 4.2 CALM 0 0 0 0 1016.2 - 0.2
18/07:00pm 21.6 22.6 14.3 63 4.3 S 2 4 1 2 1015.7 1014.4 0.2
18/06:30pm 22.9 23.6 13.4 55 5.6 S 2 4 1 2 1015.5 - 0.2
18/06:00pm 25.7 26.0 12.2 43 7.8 S 2 4 1 2 1015.2 1013.9 0.2
18/05:30pm 26.9 26.5 11.0 37 9.1 S 4 6 2 3 1014.9 - 0.2
18/05:00pm 28.8 28.0 10.9 33 10.3 SW 6 7 3 4 1014.7 1013.4 0.2
18/04:30pm 29.4 28.0 9.0 28 11.4 SSW 6 9 3 5 1014.4 - 0.2
18/04:00pm 29.5 28.4 10.6 31 10.9 S 7 13 4 7 1014.0 1012.8 0.2
18/03:30pm 29.3 28.3 12.3 35 10.1 S 9 15 5 8 1013.9 - 0.2
18/03:00pm 29.3 29.3 14.3 40 9.1 SE 7 17 4 9 1014.0 1012.8 0.2
18/02:30pm 28.2 28.2 15.1 44 8.1 SSW 9 19 5 10 1014.5 - 0.2
18/02:00pm 28.4 29.0 16.7 49 7.4 S 9 19 5 10 1014.8 1013.5 0.2
18/01:30pm 28.5 29.4 16.7 48 7.4 ESE 7 17 4 9 1015.1 - 0.2
18/01:00pm 27.4 28.6 17.3 54 6.4 SE 7 15 4 8 1015.5 1014.2 0.2
18/12:30pm 26.8 28.3 17.6 57 5.8 SSW 6 11 3 6 1016.0 - 0.2
18/12:00pm 26.4 27.7 18.5 62 5.1 S 9 19 5 10 1016.5 1015.3 0.2
18/11:30am 25.9 27.9 18.8 65 4.6 SSE 6 15 3 8 1017.0 - 0.2
18/11:00am 24.8 26.5 18.5 68 4.0 S 7 11 4 6 1017.5 1016.3 0.0
18/10:30am 24.4 26.0 19.2 73 3.4 SSW 9 15 5 8 1018.2 - 0.0
18/10:00am 24.1 26.5 19.6 76 2.9 SSE 6 9 3 5 1018.4 1017.1 0.0
18/09:30am 22.9 25.1 19.3 80 2.3 SSE 6 11 3 6 1018.6 - 0.0
18/09:00am 22.1 24.4 18.5 80 2.3 S 4 11 2 6 1018.5 1017.2 0.8
18/08:30am 21.5 24.0 19.1 86 1.5 SSE 4 7 2 4 1018.4 - 0.8
18/08:00am 19.8 22.1 18.6 93 0.8 S 4 6 2 3 1018.3 1017.0 0.8
18/07:30am 19.1 21.2 18.1 94 0.6 WSW 4 6 2 3 1018.1 - 0.8
18/07:00am 18.5 20.7 17.5 94 0.6 WSW 2 4 1 2 1017.8 1016.6 0.8
18/06:30am 18.2 20.6 17.0 93 0.7 CALM 0 0 0 0 1017.4 - 0.8
18/06:00am 18.5 21.0 17.3 93 0.7 SW 0 0 0 0 1017.1 1015.9 0.8
18/05:30am 18.6 21.2 17.4 93 0.7 CALM 0 0 0 0 1017.0 - 0.8
18/05:00am 18.9 21.7 17.9 94 0.6 CALM 0 0 0 0 1016.9 1015.7 0.8
18/04:30am 18.8 21.1 17.8 94 0.6 SW 2 4 1 2 1016.8 - 0.8
18/04:00am 18.6 21.2 17.6 94 0.6 CALM 0 0 0 0 1016.8 1015.6 0.8
18/03:30am 18.4 20.2 17.4 94 0.6 SSW 4 4 2 2 1016.7 - 0.8
18/03:00am 18.2 19.8 17.0 93 0.7 SSW 4 6 2 3 1016.7 1015.5 0.8
18/02:30am 18.8 21.4 17.6 93 0.7 CALM 0 0 0 0 1016.5 - 0.8
18/02:00am 18.7 21.3 17.4 92 0.8 CALM 0 0 0 0 1016.5 1015.3 0.8
18/01:30am 19.1 21.7 17.6 91 0.9 CALM 0 0 0 0 1016.6 - 0.8
18/01:00am 19.6 22.3 17.7 89 1.2 CALM 0 0 0 0 1016.7 1015.5 0.8
18/12:30am 19.9 22.6 17.7 87 1.4 CALM 0 2 0 1 1016.9 - 0.8
18/12:00am 20.0 21.8 17.4 85 1.6 NNE 4 6 2 3 1017.0 1015.8 0.8
 
Date/Time
EST
Temp
°C
App
Temp
°C
Dew
Point
Rel
Hum
%
Delta-T
°C
Wind Press
QNH
hPa
Press
MSL
hPa
Rain
since 9 am
mm
Dir
 
Spd
km/h
Gust
km/h
Spd
kts
Gust
kts
17/11:30pm 20.4 23.0 17.6 84 1.7 CALM 0 4 0 2 1017.1 - 0.8
17/11:00pm 20.7 22.2 17.5 82 2.0 NNE 6 7 3 4 1017.1 1015.9 0.8
17/10:30pm 21.1 22.9 17.5 80 2.2 NE 4 7 2 4 1017.3 - 0.8
17/10:00pm 21.3 23.4 17.3 78 2.5 NE 2 4 1 2 1017.3 1016.1 0.8
17/09:30pm 21.5 23.3 17.5 78 2.5 N 4 6 2 3 1017.1 - 0.8
17/09:00pm 21.6 22.4 17.4 77 2.6 ENE 9 15 5 8 1017.0 1015.8 0.8
17/08:30pm 21.9 23.1 18.3 80 2.3 SE 9 15 5 8 1017.1 - 0.8
17/08:00pm 21.8 22.6 19.0 84 1.8 S 13 20 7 11 1017.1 1015.9 0.8
17/07:30pm 24.8 26.6 17.5 64 4.6 SE 4 11 2 6 1016.3 - 0.0
17/07:00pm 24.0 26.3 17.7 68 4.0 NW 2 6 1 3 1015.4 1014.1 0.0
17/06:30pm 24.9 27.3 16.9 61 5.0 CALM 0 0 0 0 1015.0 - 0.0
17/06:00pm 25.4 26.4 16.3 57 5.6 NW 6 7 3 4 1014.8 1013.5 0.0
17/05:30pm 27.6 28.6 15.3 47 7.6 WNW 4 4 2 2 1014.8 - 0.0
17/05:00pm 28.9 29.9 15.4 44 8.4 NNW 4 6 2 3 1014.5 1013.2 0.0
17/04:30pm 28.1 28.2 15.4 46 7.8 NNW 9 11 5 6 1014.4 - 0.0
17/04:00pm 27.6 27.1 15.9 49 7.3 NNW 13 19 7 10 1014.3 1013.0 0.0
17/03:30pm 28.7 30.4 15.2 43 8.3 CALM 0 0 0 0 1014.3 - 0.0
17/03:00pm 29.4 30.4 14.4 40 9.2 NNW 2 7 1 4 1014.3 1013.0 0.0
17/02:30pm 28.9 29.1 14.3 40 8.9 N 6 13 3 7 1014.5 - 0.0
17/02:00pm 29.1 30.0 16.0 45 8.2 NNE 6 9 3 5 1014.9 1013.6 0.0
17/01:30pm 27.9 29.3 16.5 50 7.2 SE 4 6 2 3 1015.3 - 0.0
17/01:00pm 28.3 28.3 16.2 47 7.6 S 11 19 6 10 1015.7 1014.4 0.0
17/12:30pm 28.8 30.4 17.0 49 7.5 NW 4 11 2 6 1016.3 - 0.0
17/12:00pm 28.5 30.8 18.6 55 6.4 E 4 7 2 4 1016.9 1015.7 0.0
17/11:30am 27.8 30.4 18.5 57 6.0 NW 2 6 1 3 1017.6 - 0.0
17/11:00am 26.3 28.5 19.2 65 4.6 WSW 6 9 3 5 1018.2 1016.9 0.0
17/10:30am 25.5 27.3 18.4 65 4.5 SSE 6 7 3 4 1018.5 - 0.0
17/10:00am 25.1 27.2 18.1 65 4.5 NNE 4 7 2 4 1018.7 1017.4 0.0
17/09:30am 25.2 27.5 18.6 67 4.2 NNE 4 11 2 6 1018.7 - 0.0
17/09:00am 24.5 26.9 18.7 70 3.7 E 4 6 2 3 1018.8 1017.5 0.0
17/08:30am 23.9 26.4 19.0 74 3.2 NNE 4 7 2 4 1018.4 - 0.0
17/08:00am 22.8 26.0 18.8 78 2.6 CALM 0 0 0 0 1018.2 1016.9 0.0
17/07:30am 20.7 23.6 18.1 85 1.6 CALM 0 0 0 0 1018.1 - 0.0
17/07:00am 19.9 22.3 18.0 89 1.2 ESE 2 6 1 3 1017.5 1016.3 0.0
17/06:30am 19.6 22.0 17.9 90 1.1 ESE 2 4 1 2 1017.4 - 0.0
17/06:00am 19.8 21.9 18.1 90 1.1 SE 4 7 2 4 1017.2 1016.0 0.0
17/05:30am 19.3 22.1 18.0 92 0.8 CALM 0 0 0 0 1016.8 - 0.0
17/05:00am 19.4 22.0 17.5 89 1.2 CALM 0 4 0 2 1016.3 1015.1 0.0
17/04:30am 19.9 22.7 17.9 88 1.2 CALM 0 2 0 1 1016.2 - 0.0
17/04:00am 19.8 21.4 17.9 89 1.2 S 6 7 3 4 1016.1 1014.9 0.0
17/03:30am 19.6 21.1 18.1 91 0.9 S 7 9 4 5 1015.9 - 0.0
17/03:00am 19.6 21.0 17.9 90 1.1 SSE 7 13 4 7 1015.6 1014.3 0.0
17/02:30am 19.7 21.7 17.8 89 1.2 N 4 6 2 3 1015.2 - 0.0
17/02:00am 20.2 21.9 18.1 88 1.3 N 6 9 3 5 1015.3 1014.0 0.0
17/01:30am 20.4 22.2 18.2 87 1.4 NNE 6 11 3 6 1015.4 - 0.0
17/01:00am 20.3 21.8 17.7 85 1.6 NNE 6 7 3 4 1015.7 1014.4 0.0
17/12:30am 20.6 22.1 17.6 83 1.9 N 6 9 3 5 1015.7 - 0.0
17/12:00am 21.0 22.3 17.2 79 2.4 N 6 7 3 4 1015.8 1014.6 0.0
 
Date/Time
EST
Temp
°C
App
Temp
°C
Dew
Point
Rel
Hum
%
Delta-T
°C
Wind Press
QNH
hPa
Press
MSL
hPa
Rain
since 9 am
mm
Dir
 
Spd
km/h
Gust
km/h
Spd
kts
Gust
kts
16/11:30pm 22.1 23.6 17.7 76 2.8 N 6 11 3 6 1015.8 - 0.0
16/11:00pm 21.3 22.5 17.3 78 2.5 N 7 11 4 6 1015.7 1014.4 0.0
16/10:30pm 21.0 22.6 17.0 78 2.5 N 4 6 2 3 1015.8 - 0.0
16/10:00pm 20.4 21.8 16.4 78 2.4 NNW 4 4 2 2 1015.7 1014.4 0.0
16/09:30pm 21.4 23.9 17.2 77 2.6 CALM 0 0 0 0 1015.6 - 0.0
16/09:00pm 22.4 24.6 16.4 69 3.7 CALM 0 0 0 0 1015.3 1014.0 0.0
16/08:30pm 22.7 24.6 16.7 69 3.7 NNE 2 6 1 3 1015.2 - 0.0
16/08:00pm 22.9 24.4 16.7 68 3.8 SSE 4 11 2 6 1014.8 1013.5 0.0
16/07:30pm 23.3 25.8 17.3 69 3.8 CALM 0 0 0 0 1014.3 - 0.0
16/07:00pm 23.4 24.9 16.7 66 4.2 SSW 4 4 2 2 1013.9 1012.7 0.0
16/06:30pm 25.3 27.3 15.9 56 5.8 CALM 0 0 0 0 1013.6 - 0.0
16/06:00pm 26.9 28.0 14.6 46 7.5 S 2 4 1 2 1013.5 1012.3 0.0
16/05:30pm 28.4 28.7 14.6 43 8.4 SSE 6 9 3 5 1013.2 - 0.0
16/05:00pm 29.4 30.5 15.5 43 8.6 SSE 4 7 2 4 1013.1 1011.9 0.0
16/04:30pm 28.7 29.5 14.9 43 8.5 SSE 4 7 2 4 1012.9 - 0.0
16/04:00pm 29.2 30.7 15.7 44 8.4 SE 2 6 1 3 1012.9 1011.7 0.0
16/03:30pm 29.6 30.0 15.3 41 8.9 SSE 7 11 4 6 1013.1 - 0.0
16/03:00pm 30.7 32.2 16.7 43 8.9 WSW 4 11 2 6 1013.1 1011.9 0.0
16/02:30pm 29.1 30.0 16.0 45 8.2 SSW 6 11 3 6 1013.3 - 0.0
16/02:00pm 28.8 30.3 16.7 48 7.6 S 4 6 2 3 1013.6 1012.4 0.0
16/01:30pm 28.9 30.1 15.8 45 8.2 SE 4 6 2 3 1013.8 - 0.0
16/01:00pm 28.5 29.3 16.4 48 7.6 S 7 15 4 8 1014.4 1013.1 0.0
16/12:30pm 29.1 30.9 17.3 49 7.5 W 4 9 2 5 1014.7 - 0.0
16/12:00pm 27.9 29.1 17.4 52 6.7 SSE 7 11 4 6 1015.2 1013.9 0.0
16/11:30am 27.1 28.5 17.3 55 6.2 SE 6 9 3 5 1015.9 - 0.0
16/11:00am 27.8 30.1 17.6 53 6.5 ENE 2 7 1 4 1016.4 1015.2 0.0
16/10:30am 26.9 28.3 17.4 56 6.0 E 6 11 3 6 1016.9 - 0.0
16/10:00am 27.0 28.9 18.6 60 5.4 NE 6 13 3 7 1017.1 1015.9 0.0
16/09:30am 25.5 26.9 17.9 63 4.8 N 7 11 4 6 1017.3 - 0.0
16/09:00am 23.9 25.3 17.9 69 3.8 NNE 7 11 4 6 1017.3 1016.1 0.0
16/08:30am 23.1 24.9 18.4 75 3.0 NNE 6 11 3 6 1017.2 - 0.0
16/08:00am 22.0 23.7 18.6 81 2.2 N 7 9 4 5 1016.9 1015.7 0.0
16/07:30am 21.5 24.5 18.5 83 1.9 CALM 0 2 0 1 1016.7 - 0.0
16/07:00am 19.5 22.4 18.2 92 0.8 CALM 0 0 0 0 1016.4 1015.2 0.0
16/06:30am 19.3 22.1 18.0 92 0.8 CALM 0 0 0 0 1016.1 - 0.0
16/06:00am 19.4 22.2 17.9 91 0.9 CALM 0 0 0 0 1016.0 1014.8 0.0
16/05:30am 19.2 21.5 17.7 91 0.9 NW 2 4 1 2 1015.7 - 0.0
16/05:00am 19.5 22.2 17.8 90 1.1 CALM 0 0 0 0 1015.4 1014.1 0.0
16/04:30am 19.7 22.1 18.0 90 1.1 WNW 2 4 1 2 1015.4 - 0.0
16/04:00am 19.9 22.7 18.0 89 1.2 CALM 0 0 0 0 1015.0 1013.7 0.0
16/03:30am 20.4 23.3 18.2 87 1.4 CALM 0 0 0 0 1014.9 - 0.0
16/03:00am 20.3 23.2 18.1 87 1.4 CALM 0 0 0 0 1014.8 1013.5 0.0
16/02:30am 20.3 22.4 18.1 87 1.4 NW 4 6 2 3 1015.0 - 0.0
16/02:00am 20.5 23.4 18.1 86 1.5 CALM 0 4 0 2 1014.9 1013.6 0.0
16/01:30am 20.7 22.7 17.9 84 1.8 SE 4 4 2 2 1015.1 - 0.0
16/01:00am 21.1 22.5 17.9 82 2.0 SSW 7 11 4 6 1015.8 1014.6 0.0
16/12:30am 21.9 22.9 17.7 77 2.6 SSW 9 19 5 10 1016.3 - 0.0
16/12:00am 20.6 23.0 18.0 85 1.6 S 2 4 1 2 1015.7 1014.4 0.0
 
Date/Time
EST
Temp
°C
App
Temp
°C
Dew
Point
Rel
Hum
%
Delta-T
°C
Wind Press
QNH
hPa
Press
MSL
hPa
Rain
since 9 am
mm
Dir
 
Spd
km/h
Gust
km/h
Spd
kts
Gust
kts
15/11:30pm 20.3 23.0 17.7 85 1.6 CALM 0 0 0 0 1015.6 - 0.0
15/11:00pm 19.7 22.3 17.5 87 1.4 CALM 0 2 0 1 1015.6 1014.3 0.0
15/10:30pm 19.9 22.4 17.3 85 1.6 CALM 0 0 0 0 1015.4 - 0.0
15/10:00pm 20.1 22.8 17.7 86 1.5 CALM 0 4 0 2 1015.4 1014.1 0.0
15/09:30pm 20.5 23.2 17.7 84 1.7 CALM 0 0 0 0 1015.0 - 0.0
15/09:00pm 20.4 22.2 17.4 83 1.9 N 4 4 2 2 1015.0 1013.7 0.0

Other Formats:

Comma delimited format used in spreadsheet applications
http://www.bom.gov.au/fwo/IDQ60801/IDQ60801.94395.axf

JavaScript Object Notation format (JSON) in row-major order
http://www.bom.gov.au/fwo/IDQ60801/IDQ60801.94395.json